Авиационная погода в Ульяновске

Регион: 
Погода METAR: 
UWLW 262100Z 17009MPS 1800 R20/P2000N SN BLSN OVC007 M10/M12 Q0998 R20/494030 NOSIG RMK QFE743
Время наблюдения
2021-02-26T21:00:00Z
Температура C
-10.0
Точка росы
-12.0
Направление ветра
170
Скорость ветра (узлы)
17
Метео видимость
1.12
Явления погоды
SN BLSN
Условия полета
IFR
Аэропорт подробнее: